createdAt,value
2022-11-08T00:02:03.906Z,93.00
2022-11-08T00:04:32.062Z,93.00
2022-11-08T00:07:13.703Z,93.30
2022-11-08T00:09:55.660Z,93.50
2022-11-08T00:12:37.479Z,93.70
2022-11-08T00:15:08.108Z,93.90
2022-11-08T00:17:36.220Z,94.20
2022-11-08T00:20:05.313Z,94.20
2022-11-08T00:22:33.040Z,94.00
2022-11-08T00:25:00.763Z,94.00
2022-11-08T00:27:28.852Z,94.20
2022-11-08T00:29:56.602Z,94.20
2022-11-08T00:32:27.235Z,94.20
2022-11-08T00:34:55.061Z,94.20
2022-11-08T00:37:23.681Z,94.20
2022-11-08T00:39:51.472Z,93.90
2022-11-08T00:42:19.179Z,93.50
2022-11-08T00:44:47.045Z,93.30
2022-11-08T00:47:14.740Z,93.30
2022-11-08T00:49:43.732Z,93.30
2022-11-08T00:52:11.464Z,93.00
2022-11-08T00:54:39.129Z,92.90
2022-11-08T00:57:07.109Z,92.90
2022-11-08T00:59:34.841Z,92.80
2022-11-08T01:02:02.741Z,92.70
2022-11-08T01:04:30.542Z,92.60
2022-11-08T01:06:59.540Z,92.50
2022-11-08T01:09:27.329Z,92.60
2022-11-08T01:11:55.029Z,92.50
2022-11-08T01:14:22.725Z,92.50
2022-11-08T01:16:50.476Z,92.70
2022-11-08T01:19:18.193Z,92.80
2022-11-08T01:21:45.881Z,92.80
2022-11-08T01:24:15.128Z,93.10
2022-11-08T01:26:42.865Z,93.30
2022-11-08T01:29:10.573Z,93.80
2022-11-08T01:31:38.272Z,94.00
2022-11-08T01:34:06.000Z,93.60
2022-11-08T01:36:33.780Z,94.40
2022-11-08T01:39:01.435Z,94.40
2022-11-08T01:41:30.485Z,94.50
2022-11-08T01:43:59.894Z,95.50
2022-11-08T01:46:43.134Z,95.60
2022-11-08T01:49:21.349Z,95.40
2022-11-08T01:51:54.152Z,95.00
2022-11-08T01:54:28.520Z,94.60
2022-11-08T01:56:59.368Z,94.40
2022-11-08T01:59:27.445Z,94.00
2022-11-08T02:01:56.125Z,93.80
2022-11-08T02:04:23.945Z,93.70
2022-11-08T02:06:52.161Z,93.60
2022-11-08T02:09:20.276Z,93.50
2022-11-08T02:11:49.539Z,93.50
2022-11-08T02:14:19.255Z,93.40
2022-11-08T02:16:47.079Z,93.40
2022-11-08T02:19:23.552Z,93.10
2022-11-08T02:21:56.154Z,93.70
2022-11-08T02:24:25.195Z,94.10
2022-11-08T02:26:53.952Z,94.40
2022-11-08T02:29:25.632Z,94.40
2022-11-08T02:31:53.586Z,94.90
2022-11-08T02:34:24.502Z,95.10
2022-11-08T02:36:52.231Z,94.90
2022-11-08T02:39:19.987Z,94.50
2022-11-08T02:41:49.000Z,94.70
2022-11-08T02:44:16.686Z,94.20
2022-11-08T02:46:44.407Z,94.20
2022-11-08T02:49:12.252Z,94.10
2022-11-08T02:51:39.952Z,93.70
2022-11-08T02:54:07.880Z,93.60
2022-11-08T02:56:35.628Z,93.10
2022-11-08T02:59:06.025Z,92.80
2022-11-08T03:01:33.854Z,92.50
2022-11-08T03:04:01.711Z,92.50
2022-11-08T03:06:29.443Z,92.70
2022-11-08T03:08:57.108Z,92.80
2022-11-08T03:11:24.810Z,92.70
2022-11-08T03:13:52.507Z,92.10
2022-11-08T03:16:21.592Z,92.90
2022-11-08T03:18:49.302Z,93.50
2022-11-08T03:21:16.974Z,93.70
2022-11-08T03:23:44.675Z,94.30
2022-11-08T03:26:12.401Z,94.40
2022-11-08T03:28:40.082Z,94.60
2022-11-08T03:31:08.827Z,94.50
2022-11-08T03:33:37.882Z,94.60
2022-11-08T03:36:06.052Z,95.00
2022-11-08T03:38:33.910Z,95.00
2022-11-08T03:41:01.609Z,95.20
2022-11-08T03:43:29.273Z,95.50
2022-11-08T03:45:56.946Z,95.40
2022-11-08T03:48:24.631Z,95.60
2022-11-08T03:50:53.612Z,95.70
2022-11-08T03:53:21.335Z,95.80
2022-11-08T03:55:49.050Z,95.80
2022-11-08T03:58:17.392Z,96.20
2022-11-08T04:00:45.366Z,96.10
2022-11-08T04:03:13.067Z,96.10
2022-11-08T04:05:40.786Z,95.90
2022-11-08T04:08:09.812Z,95.90
2022-11-08T04:10:37.505Z,95.70
2022-11-08T04:13:19.292Z,95.70
2022-11-08T04:15:53.039Z,96.00
2022-11-08T04:18:34.818Z,96.00
2022-11-08T04:21:16.530Z,96.40
2022-11-08T04:23:46.250Z,96.30
2022-11-08T04:26:14.317Z,96.80
2022-11-08T04:28:42.683Z,96.80
2022-11-08T04:31:11.870Z,96.80
2022-11-08T04:33:39.551Z,96.80
2022-11-08T04:36:10.181Z,96.80
2022-11-08T04:38:37.980Z,96.80
2022-11-08T04:41:08.727Z,96.80
2022-11-08T04:43:36.618Z,96.80
2022-11-08T04:46:06.328Z,96.80
2022-11-08T04:48:34.316Z,96.80
2022-11-08T04:51:04.210Z,96.80
2022-11-08T04:53:31.939Z,96.80
2022-11-08T04:56:02.580Z,96.80
2022-11-08T04:58:34.406Z,96.80
2022-11-08T05:01:02.721Z,96.80
2022-11-08T05:03:30.711Z,96.80
2022-11-08T05:06:01.824Z,96.80
2022-11-08T05:08:29.710Z,96.40
2022-11-08T05:11:02.374Z,96.30
2022-11-08T05:13:31.515Z,96.40
2022-11-08T05:16:01.767Z,96.60
2022-11-08T05:18:29.818Z,96.80
2022-11-08T05:21:12.886Z,96.80
2022-11-08T05:23:40.672Z,96.80
2022-11-08T05:26:08.712Z,96.80
2022-11-08T05:28:38.004Z,96.80
2022-11-08T05:31:05.966Z,96.80
2022-11-08T05:33:34.034Z,96.80
2022-11-08T05:36:05.823Z,96.80
2022-11-08T05:38:34.440Z,96.80
2022-11-08T05:41:04.271Z,96.80
2022-11-08T05:43:32.487Z,96.80
2022-11-08T05:46:01.552Z,96.80
2022-11-08T05:48:29.503Z,96.80
2022-11-08T05:50:57.673Z,96.80
2022-11-08T05:53:25.432Z,96.80
2022-11-08T05:55:58.145Z,96.80
2022-11-08T05:58:26.053Z,96.70
2022-11-08T06:01:01.730Z,96.50
2022-11-08T06:03:30.530Z,96.00
2022-11-08T06:06:02.850Z,96.10
2022-11-08T06:08:30.748Z,96.10
2022-11-08T06:11:03.229Z,95.90
2022-11-08T06:13:31.368Z,95.80
2022-11-08T06:16:02.696Z,95.90
2022-11-08T06:18:30.881Z,96.00
2022-11-08T06:20:59.546Z,96.60
2022-11-08T06:23:27.867Z,96.60
2022-11-08T06:25:56.256Z,96.80
2022-11-08T06:28:24.372Z,96.80
2022-11-08T06:30:52.604Z,96.70
2022-11-08T06:33:22.598Z,96.80
2022-11-08T06:35:50.704Z,96.80
2022-11-08T06:38:18.619Z,96.80
2022-11-08T06:40:46.303Z,96.80
2022-11-08T06:43:19.352Z,96.80
2022-11-08T06:45:47.748Z,96.80
2022-11-08T06:48:15.477Z,96.80
2022-11-08T06:50:45.038Z,96.80
2022-11-08T06:53:14.303Z,96.80
2022-11-08T06:55:42.935Z,96.80
2022-11-08T06:58:11.528Z,96.80
2022-11-08T07:00:39.654Z,96.80
2022-11-08T07:03:07.449Z,96.80
2022-11-08T07:05:36.471Z,96.80
2022-11-08T07:08:05.978Z,96.80
2022-11-08T07:10:34.270Z,96.80
2022-11-08T07:13:04.419Z,96.80
2022-11-08T07:15:33.649Z,96.80
2022-11-08T07:18:02.532Z,96.80
2022-11-08T07:20:30.611Z,96.80
2022-11-08T07:22:59.054Z,96.80
2022-11-08T07:25:29.211Z,96.60
2022-11-08T07:27:57.741Z,96.40
2022-11-08T07:30:25.549Z,95.90
2022-11-08T07:32:53.293Z,95.40
2022-11-08T07:35:21.142Z,94.40
2022-11-08T07:37:51.556Z,94.70
2022-11-08T07:40:19.500Z,94.10
2022-11-08T07:45:36.273Z,93.20
2022-11-08T07:48:11.008Z,93.70
2022-11-08T07:50:39.608Z,92.50
2022-11-08T07:53:09.575Z,90.80
2022-11-08T07:55:37.960Z,90.10
2022-11-08T07:58:07.608Z,90.70
2022-11-08T08:00:40.483Z,91.90
2022-11-08T08:03:11.469Z,92.60
2022-11-08T08:05:44.764Z,92.70
2022-11-08T08:08:15.183Z,92.40
2022-11-08T08:10:47.372Z,92.30
2022-11-08T08:13:16.956Z,92.10
2022-11-08T08:15:48.451Z,92.20
2022-11-08T08:18:17.288Z,92.00
2022-11-08T08:20:46.976Z,91.30
2022-11-08T08:23:15.010Z,91.30
2022-11-08T08:25:42.849Z,90.70
2022-11-08T08:28:10.952Z,89.10
2022-11-08T08:30:40.705Z,89.80
2022-11-08T08:36:00.647Z,90.80
2022-11-08T08:38:28.377Z,90.70
2022-11-08T08:40:56.048Z,90.90
2022-11-08T08:43:23.750Z,90.70
2022-11-08T08:45:54.169Z,90.00
2022-11-08T08:48:22.310Z,88.70
2022-11-08T08:50:49.993Z,87.70
2022-11-08T08:53:18.053Z,87.40
2022-11-08T08:55:47.854Z,87.10
2022-11-08T08:58:15.722Z,87.00
2022-11-08T09:03:34.542Z,85.70
2022-11-08T09:06:03.161Z,83.70
2022-11-08T09:08:31.482Z,83.10
2022-11-08T09:11:01.260Z,81.40
2022-11-08T09:13:32.322Z,78.90
2022-11-08T09:16:01.640Z,78.30
2022-11-08T09:18:29.599Z,76.60
2022-11-08T09:20:58.978Z,75.30
2022-11-08T09:23:27.523Z,76.20
2022-11-08T09:25:58.386Z,77.80
2022-11-08T09:28:30.924Z,78.80
2022-11-08T09:31:02.509Z,79.00
2022-11-08T09:33:30.383Z,78.10
2022-11-08T09:36:01.907Z,78.80
2022-11-08T09:38:29.992Z,78.00
2022-11-08T09:41:14.908Z,78.60
2022-11-08T09:43:58.683Z,78.80
2022-11-08T09:46:35.530Z,78.10
2022-11-08T09:49:07.553Z,79.10
2022-11-08T09:51:37.269Z,79.80
2022-11-08T09:54:08.653Z,78.20
2022-11-08T09:56:39.227Z,78.40
2022-11-08T09:59:14.493Z,77.60
2022-11-08T10:01:42.651Z,78.10
2022-11-08T10:04:22.069Z,79.20
2022-11-08T10:07:03.593Z,78.30
2022-11-08T10:09:48.269Z,77.30
2022-11-08T10:12:22.274Z,77.00
2022-11-08T10:15:03.510Z,76.80
2022-11-08T10:17:51.022Z,75.50
2022-11-08T10:20:28.407Z,75.60
2022-11-08T10:23:04.061Z,76.00
2022-11-08T10:25:39.613Z,75.60
2022-11-08T10:28:08.065Z,77.50
2022-11-08T10:30:40.933Z,76.80
2022-11-08T10:33:17.545Z,76.40
2022-11-08T10:35:50.396Z,76.10
2022-11-08T10:38:22.183Z,75.50
2022-11-08T10:40:58.676Z,76.20
2022-11-08T10:43:32.418Z,74.50
2022-11-08T10:46:00.192Z,75.70
2022-11-08T10:48:28.320Z,76.40
2022-11-08T10:50:56.400Z,76.10
2022-11-08T10:53:28.287Z,77.10
2022-11-08T10:56:00.965Z,76.80
2022-11-08T10:58:33.162Z,77.30
2022-11-08T11:01:04.543Z,77.30
2022-11-08T11:03:34.585Z,78.00
2022-11-08T11:06:04.590Z,78.40
2022-11-08T11:08:34.461Z,78.80
2022-11-08T11:11:23.923Z,80.10
2022-11-08T11:14:08.811Z,75.60
2022-11-08T11:16:38.282Z,77.50
2022-11-08T11:19:07.482Z,78.80
2022-11-08T11:21:38.047Z,75.40
2022-11-08T11:24:12.025Z,72.90
2022-11-08T11:26:46.260Z,76.30
2022-11-08T11:29:19.592Z,75.70
2022-11-08T11:31:49.440Z,73.00
2022-11-08T11:34:39.360Z,72.00
2022-11-08T11:37:19.019Z,73.90
2022-11-08T11:39:56.004Z,72.50
2022-11-08T11:42:45.787Z,74.10
2022-11-08T11:45:19.563Z,74.00
2022-11-08T11:47:53.046Z,73.70
2022-11-08T11:50:29.956Z,74.40
2022-11-08T11:52:59.371Z,74.40
2022-11-08T11:55:43.550Z,73.90
2022-11-08T11:58:26.562Z,74.70
2022-11-08T12:01:02.920Z,76.30
2022-11-08T12:03:41.171Z,74.50
2022-11-08T12:06:28.325Z,75.90
2022-11-08T12:09:12.583Z,75.20
2022-11-08T12:11:52.826Z,73.40
2022-11-08T12:14:36.527Z,73.20
2022-11-08T12:17:20.046Z,73.70
2022-11-08T12:20:03.651Z,72.10
2022-11-08T12:22:48.923Z,73.90
2022-11-08T12:25:24.305Z,78.20
2022-11-08T12:28:04.790Z,79.70
2022-11-08T12:30:38.979Z,80.30
2022-11-08T12:33:21.162Z,80.30
2022-11-08T12:36:01.955Z,81.80
2022-11-08T12:38:35.179Z,81.40
2022-11-08T12:41:11.647Z,79.20
2022-11-08T12:44:05.725Z,82.10
2022-11-08T12:46:38.960Z,82.90
2022-11-08T12:49:22.799Z,79.40
2022-11-08T12:52:03.867Z,81.40
2022-11-08T12:54:37.248Z,81.30
2022-11-08T12:57:11.143Z,81.80
2022-11-08T12:59:43.714Z,81.30
2022-11-08T13:02:18.390Z,84.20
2022-11-08T13:04:56.117Z,82.50
2022-11-08T13:07:35.349Z,84.10
2022-11-08T13:10:12.817Z,84.00
2022-11-08T13:13:03.535Z,83.00
2022-11-08T13:15:32.610Z,85.00
2022-11-08T13:18:25.178Z,78.70
2022-11-08T13:20:53.158Z,77.30
2022-11-08T13:23:27.403Z,82.40
2022-11-08T13:25:58.142Z,77.10
2022-11-08T13:28:43.061Z,82.00
2022-11-08T13:31:27.527Z,83.30
2022-11-08T13:34:15.531Z,82.70
2022-11-08T13:36:53.264Z,79.40
2022-11-08T13:39:39.560Z,83.40
2022-11-08T13:42:31.203Z,82.20
2022-11-08T13:45:14.174Z,82.10
2022-11-08T13:48:00.258Z,82.80
2022-11-08T13:50:51.166Z,77.40
2022-11-08T13:53:46.463Z,76.30
2022-11-08T13:56:44.004Z,82.20
2022-11-08T13:59:41.493Z,77.50
2022-11-08T14:02:31.392Z,77.40
2022-11-08T14:05:22.779Z,72.40
2022-11-08T14:08:09.658Z,74.10
2022-11-08T14:10:48.436Z,72.20
2022-11-08T14:13:22.418Z,75.20
2022-11-08T14:15:55.652Z,77.00
2022-11-08T14:18:28.334Z,76.60
2022-11-08T14:20:57.858Z,76.60
2022-11-08T14:23:29.838Z,77.50
2022-11-08T14:26:01.306Z,76.60
2022-11-08T14:28:32.949Z,79.00
2022-11-08T14:31:02.815Z,81.70
2022-11-08T14:33:34.039Z,83.80
2022-11-08T14:36:07.193Z,84.20
2022-11-08T14:38:38.097Z,85.20
2022-11-08T14:41:07.712Z,85.20
2022-11-08T14:43:45.711Z,85.90
2022-11-08T14:46:15.275Z,86.70
2022-11-08T14:48:50.302Z,86.20
2022-11-08T14:51:20.608Z,85.40
2022-11-08T14:53:50.449Z,85.50
2022-11-08T14:56:20.710Z,86.60
2022-11-08T14:58:50.418Z,87.20
2022-11-08T15:01:22.088Z,87.20
2022-11-08T15:03:55.576Z,87.50
2022-11-08T15:06:31.436Z,87.90
2022-11-08T15:08:59.779Z,88.90
2022-11-08T15:11:30.042Z,89.00
2022-11-08T15:14:01.827Z,89.30
2022-11-08T15:16:40.054Z,89.40
2022-11-08T15:19:33.136Z,89.70
2022-11-08T15:22:04.076Z,89.90
2022-11-08T15:24:37.185Z,89.90
2022-11-08T15:27:09.012Z,90.00
2022-11-08T15:29:53.169Z,90.40
2022-11-08T15:32:23.486Z,89.60
2022-11-08T15:34:55.116Z,89.60
2022-11-08T15:37:29.692Z,89.70
2022-11-08T15:40:01.135Z,89.20
2022-11-08T15:42:29.344Z,89.00
2022-11-08T15:45:00.580Z,89.40
2022-11-08T15:47:46.017Z,89.60
2022-11-08T15:50:17.518Z,89.30
2022-11-08T15:52:48.730Z,90.00
2022-11-08T15:55:18.953Z,90.00
2022-11-08T15:57:48.532Z,90.20
2022-11-08T16:00:19.219Z,89.80
2022-11-08T16:02:47.550Z,89.70
2022-11-08T16:05:17.375Z,89.20
2022-11-08T16:07:46.917Z,89.80
2022-11-08T16:10:17.395Z,89.60
2022-11-08T16:12:46.855Z,90.30
2022-11-08T16:15:16.867Z,89.90
2022-11-08T16:17:44.967Z,90.10
2022-11-08T16:20:26.803Z,89.90
2022-11-08T16:22:56.604Z,89.00
2022-11-08T16:25:25.869Z,88.60
2022-11-08T16:27:56.829Z,89.30
2022-11-08T16:30:25.400Z,88.80
2022-11-08T16:32:53.265Z,89.00
2022-11-08T16:35:21.008Z,89.50
2022-11-08T16:37:49.012Z,89.50
2022-11-08T16:40:20.162Z,89.70
2022-11-08T16:42:49.226Z,89.20
2022-11-08T16:45:27.976Z,89.80
2022-11-08T16:48:06.340Z,89.50
2022-11-08T16:50:34.080Z,88.80
2022-11-08T16:53:01.841Z,88.80
2022-11-08T16:55:30.814Z,88.20
2022-11-08T16:57:58.547Z,88.10
2022-11-08T17:00:26.237Z,88.30
2022-11-08T17:02:54.986Z,88.20
2022-11-08T17:05:25.060Z,88.20
2022-11-08T17:07:53.665Z,86.50
2022-11-08T17:10:23.701Z,87.40
2022-11-08T17:12:53.324Z,87.80
2022-11-08T17:15:22.886Z,88.50
2022-11-08T17:17:51.811Z,88.50
2022-11-08T17:20:21.117Z,89.00
2022-11-08T17:22:54.692Z,88.80
2022-11-08T17:25:24.069Z,89.10
2022-11-08T17:27:53.708Z,89.50
2022-11-08T17:30:26.459Z,89.00
2022-11-08T17:32:54.820Z,89.60
2022-11-08T17:35:22.572Z,90.00
2022-11-08T17:37:50.320Z,90.00
2022-11-08T17:40:18.112Z,90.50
2022-11-08T17:42:46.508Z,90.30
2022-11-08T17:45:15.535Z,89.60
2022-11-08T17:47:43.249Z,87.70
2022-11-08T17:50:11.613Z,88.30
2022-11-08T17:52:39.428Z,88.20
2022-11-08T17:55:08.080Z,88.70
2022-11-08T17:57:35.800Z,88.70
2022-11-08T18:00:08.636Z,88.20
2022-11-08T18:02:45.521Z,86.90
2022-11-08T18:05:13.204Z,86.70
2022-11-08T18:07:41.101Z,85.80
2022-11-08T18:10:09.816Z,86.40
2022-11-08T18:12:37.852Z,86.20
2022-11-08T18:15:06.247Z,86.30
2022-11-08T18:17:33.939Z,85.50
2022-11-08T18:20:02.964Z,86.80
2022-11-08T18:22:30.704Z,86.60
2022-11-08T18:24:58.452Z,86.80
2022-11-08T18:27:26.193Z,86.70
2022-11-08T18:29:53.928Z,87.00
2022-11-08T18:32:21.676Z,86.50
2022-11-08T18:34:49.344Z,85.50
2022-11-08T18:37:18.447Z,85.50
2022-11-08T18:39:46.185Z,85.70
2022-11-08T18:42:14.067Z,85.50
2022-11-08T18:44:41.784Z,87.40
2022-11-08T18:47:09.843Z,87.90
2022-11-08T18:49:37.532Z,88.20
2022-11-08T18:52:05.677Z,87.00
2022-11-08T18:54:34.727Z,86.20
2022-11-08T18:57:02.935Z,85.10
2022-11-08T18:59:30.821Z,85.10
2022-11-08T19:01:58.803Z,85.10
2022-11-08T19:04:26.736Z,85.40
2022-11-08T19:06:55.004Z,85.20
2022-11-08T19:09:23.171Z,85.20
2022-11-08T19:11:53.440Z,84.80
2022-11-08T19:14:21.214Z,85.80
2022-11-08T19:16:51.961Z,86.70
2022-11-08T19:19:19.664Z,87.10
2022-11-08T19:21:47.366Z,87.50
2022-11-08T19:24:15.133Z,86.50
2022-11-08T19:26:42.817Z,85.10
2022-11-08T19:29:14.106Z,84.50
2022-11-08T19:31:44.872Z,84.20
2022-11-08T19:34:13.168Z,85.30
2022-11-08T19:36:43.534Z,84.40
2022-11-08T19:39:13.223Z,84.80
2022-11-08T19:41:51.558Z,85.10
2022-11-08T19:44:21.704Z,85.80
2022-11-08T19:46:52.169Z,84.80
2022-11-08T19:49:25.164Z,84.50
2022-11-08T19:51:56.538Z,84.50
2022-11-08T19:54:28.222Z,84.90
2022-11-08T19:57:06.560Z,85.30
2022-11-08T19:59:35.696Z,84.90
2022-11-08T20:02:04.783Z,84.10
2022-11-08T20:04:34.302Z,84.60
2022-11-08T20:07:02.672Z,85.70
2022-11-08T20:09:31.039Z,85.10
2022-11-08T20:11:58.961Z,84.70
2022-11-08T20:14:27.765Z,84.40
2022-11-08T20:16:57.389Z,84.60
2022-11-08T20:19:27.514Z,84.60
2022-11-08T20:21:56.716Z,84.40
2022-11-08T20:24:25.215Z,84.20
2022-11-08T20:26:55.606Z,84.40
2022-11-08T20:29:25.482Z,83.30
2022-11-08T20:31:54.499Z,84.20
2022-11-08T20:34:25.782Z,83.80
2022-11-08T20:36:54.214Z,83.80
2022-11-08T20:39:24.220Z,85.60
2022-11-08T20:41:55.367Z,83.80
2022-11-08T20:44:24.955Z,84.80
2022-11-08T20:46:54.288Z,84.30
2022-11-08T20:49:23.809Z,83.90
2022-11-08T20:51:56.165Z,83.90
2022-11-08T20:54:24.297Z,84.50
2022-11-08T20:56:56.903Z,84.80
2022-11-08T20:59:27.245Z,84.70
2022-11-08T21:01:59.576Z,86.30
2022-11-08T21:04:32.340Z,87.60
2022-11-08T21:08:00.291Z,87.60
2022-11-08T21:10:07.698Z,88.00
2022-11-08T21:12:44.481Z,88.70
2022-11-08T21:15:14.858Z,89.10
2022-11-08T21:17:46.569Z,89.40
2022-11-08T21:20:17.673Z,89.70
2022-11-08T21:22:46.002Z,90.00
2022-11-08T21:25:14.244Z,90.40
2022-11-08T21:28:26.335Z,90.60
2022-11-08T21:32:00.360Z,90.50
2022-11-08T21:35:34.714Z,91.20
2022-11-08T21:39:07.195Z,91.30
2022-11-08T21:42:46.084Z,91.40
2022-11-08T21:46:20.837Z,91.40
2022-11-08T21:49:52.279Z,91.40
2022-11-08T21:53:23.694Z,91.70
2022-11-08T21:56:55.123Z,91.80
2022-11-08T22:00:26.648Z,91.40
2022-11-08T22:03:58.132Z,91.10
2022-11-08T22:07:29.634Z,91.30
2022-11-08T22:11:01.197Z,91.90
2022-11-08T22:14:32.655Z,91.80
2022-11-08T22:21:55.399Z,91.80
2022-11-08T22:25:26.802Z,91.60
2022-11-08T22:28:58.208Z,91.10
2022-11-08T22:32:29.634Z,91.80
2022-11-08T22:36:01.184Z,91.70
2022-11-08T22:39:32.594Z,91.70
2022-11-08T22:43:04.047Z,91.80
2022-11-08T22:46:35.495Z,91.80
2022-11-08T22:50:06.894Z,91.70
2022-11-08T22:53:38.277Z,90.80
2022-11-08T22:57:09.673Z,89.60
2022-11-08T23:00:44.328Z,88.90
2022-11-08T23:04:15.755Z,88.90
2022-11-08T23:07:47.224Z,89.10
2022-11-08T23:11:18.654Z,89.20
2022-11-08T23:14:50.032Z,89.20
2022-11-08T23:18:21.428Z,88.70
2022-11-08T23:21:52.876Z,87.90
2022-11-08T23:25:24.263Z,88.10
2022-11-08T23:28:55.706Z,88.00
2022-11-08T23:31:38.788Z,88.00
2022-11-08T23:34:06.505Z,88.40
2022-11-08T23:36:34.229Z,89.10
2022-11-08T23:39:01.905Z,89.30
2022-11-08T23:41:43.584Z,90.10
2022-11-08T23:44:25.645Z,90.50
2022-11-08T23:46:56.184Z,90.70
2022-11-08T23:49:24.529Z,90.80
2022-11-08T23:51:52.901Z,90.50
2022-11-08T23:54:20.821Z,90.40
2022-11-08T23:56:48.799Z,90.20
2022-11-08T23:59:16.931Z,90.50
